sensor_id;sensor_type;location;lat;lon;timestamp;P1;durP1;ratioP1;P2;durP2;ratioP2
8293;SDS011;4185;41.506;24.938;2023-04-03T00:01:47;8.50;;;4.67;;
8293;SDS011;4185;41.506;24.938;2023-04-03T00:04:14;9.80;;;4.93;;
8293;SDS011;4185;41.506;24.938;2023-04-03T00:06:41;9.87;;;5.10;;
8293;SDS011;4185;41.506;24.938;2023-04-03T00:09:07;5.77;;;3.50;;
8293;SDS011;4185;41.506;24.938;2023-04-03T00:11:35;6.63;;;3.90;;
8293;SDS011;4185;41.506;24.938;2023-04-03T00:14:02;6.10;;;3.93;;
8293;SDS011;4185;41.506;24.938;2023-04-03T00:16:29;6.23;;;3.80;;
8293;SDS011;4185;41.506;24.938;2023-04-03T00:18:56;5.63;;;4.30;;
8293;SDS011;4185;41.506;24.938;2023-04-03T00:21:22;7.90;;;5.20;;
8293;SDS011;4185;41.506;24.938;2023-04-03T00:23:49;4.57;;;4.10;;
8293;SDS011;4185;41.506;24.938;2023-04-03T00:26:16;7.13;;;4.23;;
8293;SDS011;4185;41.506;24.938;2023-04-03T00:28:44;6.27;;;4.80;;
8293;SDS011;4185;41.506;24.938;2023-04-03T00:31:13;8.33;;;4.97;;
8293;SDS011;4185;41.506;24.938;2023-04-03T00:33:40;5.90;;;4.47;;
8293;SDS011;4185;41.506;24.938;2023-04-03T00:36:07;5.30;;;3.33;;
8293;SDS011;4185;41.506;24.938;2023-04-03T00:38:35;5.53;;;3.23;;
8293;SDS011;4185;41.506;24.938;2023-04-03T00:41:02;6.77;;;4.17;;
8293;SDS011;4185;41.506;24.938;2023-04-03T00:43:29;6.27;;;4.27;;
8293;SDS011;4185;41.506;24.938;2023-04-03T00:45:58;6.03;;;4.67;;
8293;SDS011;4185;41.506;24.938;2023-04-03T00:48:26;5.23;;;4.00;;
8293;SDS011;4185;41.506;24.938;2023-04-03T00:50:57;5.73;;;3.90;;
8293;SDS011;4185;41.506;24.938;2023-04-03T00:53:25;3.60;;;3.17;;
8293;SDS011;4185;41.506;24.938;2023-04-03T00:55:56;5.60;;;3.80;;
8293;SDS011;4185;41.506;24.938;2023-04-03T00:58:25;4.47;;;3.67;;
8293;SDS011;4185;41.506;24.938;2023-04-03T01:00:55;6.37;;;4.90;;
8293;SDS011;4185;41.506;24.938;2023-04-03T01:03:29;5.37;;;4.07;;
8293;SDS011;4185;41.506;24.938;2023-04-03T01:05:56;5.17;;;3.43;;
8293;SDS011;4185;41.506;24.938;2023-04-03T01:08:24;4.23;;;3.57;;
8293;SDS011;4185;41.506;24.938;2023-04-03T01:10:51;5.27;;;3.30;;
8293;SDS011;4185;41.506;24.938;2023-04-03T01:13:22;4.63;;;4.23;;
8293;SDS011;4185;41.506;24.938;2023-04-03T01:15:50;4.40;;;4.00;;
8293;SDS011;4185;41.506;24.938;2023-04-03T01:18:19;4.50;;;3.67;;
8293;SDS011;4185;41.506;24.938;2023-04-03T01:20:53;3.20;;;2.97;;
8293;SDS011;4185;41.506;24.938;2023-04-03T01:23:49;4.77;;;3.80;;
8293;SDS011;4185;41.506;24.938;2023-04-03T01:26:21;4.43;;;3.50;;
8293;SDS011;4185;41.506;24.938;2023-04-03T01:28:47;3.50;;;3.20;;
8293;SDS011;4185;41.506;24.938;2023-04-03T01:31:16;4.67;;;3.60;;
8293;SDS011;4185;41.506;24.938;2023-04-03T01:33:50;4.50;;;3.80;;
8293;SDS011;4185;41.506;24.938;2023-04-03T01:36:18;5.10;;;3.40;;
8293;SDS011;4185;41.506;24.938;2023-04-03T01:38:46;4.47;;;4.00;;
8293;SDS011;4185;41.506;24.938;2023-04-03T01:41:13;7.97;;;4.13;;
8293;SDS011;4185;41.506;24.938;2023-04-03T01:43:40;6.70;;;4.50;;
8293;SDS011;4185;41.506;24.938;2023-04-03T01:46:07;6.20;;;5.23;;
8293;SDS011;4185;41.506;24.938;2023-04-03T01:48:34;4.30;;;3.90;;
8293;SDS011;4185;41.506;24.938;2023-04-03T01:51:02;8.20;;;4.90;;
8293;SDS011;4185;41.506;24.938;2023-04-03T01:53:29;7.20;;;5.27;;
8293;SDS011;4185;41.506;24.938;2023-04-03T01:55:56;7.13;;;5.70;;
8293;SDS011;4185;41.506;24.938;2023-04-03T01:58:22;6.60;;;4.23;;
8293;SDS011;4185;41.506;24.938;2023-04-03T02:00:49;8.07;;;5.97;;
8293;SDS011;4185;41.506;24.938;2023-04-03T02:03:17;8.47;;;5.97;;
8293;SDS011;4185;41.506;24.938;2023-04-03T02:05:43;10.00;;;7.37;;
8293;SDS011;4185;41.506;24.938;2023-04-03T02:08:12;11.93;;;7.40;;
8293;SDS011;4185;41.506;24.938;2023-04-03T02:10:39;7.07;;;4.63;;
8293;SDS011;4185;41.506;24.938;2023-04-03T02:13:06;7.03;;;5.20;;
8293;SDS011;4185;41.506;24.938;2023-04-03T02:15:33;9.27;;;5.53;;
8293;SDS011;4185;41.506;24.938;2023-04-03T02:17:59;8.33;;;5.20;;
8293;SDS011;4185;41.506;24.938;2023-04-03T02:20:27;6.57;;;5.27;;
8293;SDS011;4185;41.506;24.938;2023-04-03T02:22:54;8.17;;;4.80;;
8293;SDS011;4185;41.506;24.938;2023-04-03T02:25:22;6.53;;;4.67;;
8293;SDS011;4185;41.506;24.938;2023-04-03T02:27:49;8.23;;;5.20;;
8293;SDS011;4185;41.506;24.938;2023-04-03T02:30:16;6.20;;;4.37;;
8293;SDS011;4185;41.506;24.938;2023-04-03T02:32:43;6.40;;;5.40;;
8293;SDS011;4185;41.506;24.938;2023-04-03T02:35:10;6.13;;;5.03;;
8293;SDS011;4185;41.506;24.938;2023-04-03T02:37:38;6.57;;;4.43;;
8293;SDS011;4185;41.506;24.938;2023-04-03T02:40:06;8.67;;;4.83;;
8293;SDS011;4185;41.506;24.938;2023-04-03T02:42:34;8.33;;;5.37;;
8293;SDS011;4185;41.506;24.938;2023-04-03T02:45:01;10.23;;;6.63;;
8293;SDS011;4185;41.506;24.938;2023-04-03T02:47:28;8.30;;;6.33;;
8293;SDS011;4185;41.506;24.938;2023-04-03T02:49:55;10.53;;;7.17;;
8293;SDS011;4185;41.506;24.938;2023-04-03T02:52:22;8.17;;;6.27;;
8293;SDS011;4185;41.506;24.938;2023-04-03T02:54:48;6.87;;;5.27;;
8293;SDS011;4185;41.506;24.938;2023-04-03T02:57:15;8.67;;;6.07;;
8293;SDS011;4185;41.506;24.938;2023-04-03T02:59:43;10.57;;;6.87;;
8293;SDS011;4185;41.506;24.938;2023-04-03T03:02:10;11.20;;;7.03;;
8293;SDS011;4185;41.506;24.938;2023-04-03T03:04:37;7.93;;;6.70;;
8293;SDS011;4185;41.506;24.938;2023-04-03T03:07:04;8.97;;;6.47;;
8293;SDS011;4185;41.506;24.938;2023-04-03T03:09:31;11.73;;;6.23;;
8293;SDS011;4185;41.506;24.938;2023-04-03T03:11:58;8.03;;;5.33;;
8293;SDS011;4185;41.506;24.938;2023-04-03T03:14:25;9.17;;;5.63;;
8293;SDS011;4185;41.506;24.938;2023-04-03T03:16:53;8.57;;;5.17;;
8293;SDS011;4185;41.506;24.938;2023-04-03T03:19:20;7.70;;;4.43;;
8293;SDS011;4185;41.506;24.938;2023-04-03T03:21:46;6.73;;;5.20;;
8293;SDS011;4185;41.506;24.938;2023-04-03T03:24:13;9.20;;;5.73;;
8293;SDS011;4185;41.506;24.938;2023-04-03T03:26:40;11.43;;;6.60;;
8293;SDS011;4185;41.506;24.938;2023-04-03T03:29:07;8.17;;;5.93;;
8293;SDS011;4185;41.506;24.938;2023-04-03T03:31:34;6.73;;;4.60;;
8293;SDS011;4185;41.506;24.938;2023-04-03T03:34:02;9.53;;;5.50;;
8293;SDS011;4185;41.506;24.938;2023-04-03T03:36:29;6.77;;;5.33;;
8293;SDS011;4185;41.506;24.938;2023-04-03T03:38:56;6.33;;;5.37;;
8293;SDS011;4185;41.506;24.938;2023-04-03T03:41:23;8.20;;;6.20;;
8293;SDS011;4185;41.506;24.938;2023-04-03T03:43:50;9.20;;;6.13;;
8293;SDS011;4185;41.506;24.938;2023-04-03T03:46:17;5.87;;;5.27;;
8293;SDS011;4185;41.506;24.938;2023-04-03T03:48:43;5.67;;;4.67;;
8293;SDS011;4185;41.506;24.938;2023-04-03T03:51:11;6.43;;;5.30;;
8293;SDS011;4185;41.506;24.938;2023-04-03T03:53:38;8.07;;;6.30;;
8293;SDS011;4185;41.506;24.938;2023-04-03T03:56:05;11.23;;;5.70;;
8293;SDS011;4185;41.506;24.938;2023-04-03T03:58:32;12.17;;;7.00;;
8293;SDS011;4185;41.506;24.938;2023-04-03T04:01:00;9.30;;;5.87;;
8293;SDS011;4185;41.506;24.938;2023-04-03T04:03:27;8.40;;;6.10;;
8293;SDS011;4185;41.506;24.938;2023-04-03T04:05:53;9.53;;;5.90;;
8293;SDS011;4185;41.506;24.938;2023-04-03T04:08:22;8.87;;;5.60;;
8293;SDS011;4185;41.506;24.938;2023-04-03T04:10:49;9.17;;;6.13;;
8293;SDS011;4185;41.506;24.938;2023-04-03T04:13:15;14.33;;;7.93;;
8293;SDS011;4185;41.506;24.938;2023-04-03T04:15:42;10.23;;;6.00;;
8293;SDS011;4185;41.506;24.938;2023-04-03T04:18:09;14.73;;;7.90;;
8293;SDS011;4185;41.506;24.938;2023-04-03T04:20:36;13.60;;;8.20;;
8293;SDS011;4185;41.506;24.938;2023-04-03T04:23:03;11.50;;;7.80;;
8293;SDS011;4185;41.506;24.938;2023-04-03T04:25:31;11.87;;;8.00;;
8293;SDS011;4185;41.506;24.938;2023-04-03T04:27:58;11.07;;;8.20;;
8293;SDS011;4185;41.506;24.938;2023-04-03T04:30:25;9.70;;;7.40;;
8293;SDS011;4185;41.506;24.938;2023-04-03T04:32:52;11.83;;;7.97;;
8293;SDS011;4185;41.506;24.938;2023-04-03T04:35:19;15.87;;;9.50;;
8293;SDS011;4185;41.506;24.938;2023-04-03T04:37:46;15.30;;;10.70;;
8293;SDS011;4185;41.506;24.938;2023-04-03T04:40:13;10.47;;;7.83;;
8293;SDS011;4185;41.506;24.938;2023-04-03T04:42:41;12.97;;;8.17;;
8293;SDS011;4185;41.506;24.938;2023-04-03T04:45:08;15.30;;;9.53;;
8293;SDS011;4185;41.506;24.938;2023-04-03T04:47:35;15.27;;;8.80;;
8293;SDS011;4185;41.506;24.938;2023-04-03T04:50:02;11.10;;;7.80;;
8293;SDS011;4185;41.506;24.938;2023-04-03T04:52:29;14.47;;;9.47;;
8293;SDS011;4185;41.506;24.938;2023-04-03T04:54:56;16.53;;;10.20;;
8293;SDS011;4185;41.506;24.938;2023-04-03T04:57:22;16.20;;;9.70;;
8293;SDS011;4185;41.506;24.938;2023-04-03T04:59:51;18.87;;;10.90;;
8293;SDS011;4185;41.506;24.938;2023-04-03T05:02:17;19.33;;;11.60;;
8293;SDS011;4185;41.506;24.938;2023-04-03T05:04:44;16.23;;;10.67;;
8293;SDS011;4185;41.506;24.938;2023-04-03T05:07:15;16.03;;;9.30;;
8293;SDS011;4185;41.506;24.938;2023-04-03T05:09:42;14.57;;;8.97;;
8293;SDS011;4185;41.506;24.938;2023-04-03T05:12:08;13.37;;;9.27;;
8293;SDS011;4185;41.506;24.938;2023-04-03T05:14:35;15.13;;;10.97;;
8293;SDS011;4185;41.506;24.938;2023-04-03T05:17:03;16.03;;;10.60;;
8293;SDS011;4185;41.506;24.938;2023-04-03T05:19:30;16.63;;;10.90;;
8293;SDS011;4185;41.506;24.938;2023-04-03T05:21:57;15.40;;;11.17;;
8293;SDS011;4185;41.506;24.938;2023-04-03T05:24:23;26.27;;;15.47;;
8293;SDS011;4185;41.506;24.938;2023-04-03T05:26:51;26.60;;;15.97;;
8293;SDS011;4185;41.506;24.938;2023-04-03T05:29:18;45.70;;;25.23;;
8293;SDS011;4185;41.506;24.938;2023-04-03T05:31:44;21.80;;;13.60;;
8293;SDS011;4185;41.506;24.938;2023-04-03T05:34:12;18.63;;;12.70;;
8293;SDS011;4185;41.506;24.938;2023-04-03T05:36:40;15.20;;;10.77;;
8293;SDS011;4185;41.506;24.938;2023-04-03T05:39:07;15.80;;;11.13;;
8293;SDS011;4185;41.506;24.938;2023-04-03T05:41:34;15.63;;;10.40;;
8293;SDS011;4185;41.506;24.938;2023-04-03T05:44:01;19.77;;;13.40;;
8293;SDS011;4185;41.506;24.938;2023-04-03T05:46:27;19.63;;;12.23;;
8293;SDS011;4185;41.506;24.938;2023-04-03T05:48:55;16.03;;;10.30;;
8293;SDS011;4185;41.506;24.938;2023-04-03T05:51:23;12.67;;;8.13;;
8293;SDS011;4185;41.506;24.938;2023-04-03T05:53:52;10.20;;;6.63;;
8293;SDS011;4185;41.506;24.938;2023-04-03T05:56:23;8.87;;;5.47;;
8293;SDS011;4185;41.506;24.938;2023-04-03T05:58:50;5.97;;;5.37;;
8293;SDS011;4185;41.506;24.938;2023-04-03T06:01:17;5.00;;;4.53;;
8293;SDS011;4185;41.506;24.938;2023-04-03T06:03:44;19.80;;;13.00;;
8293;SDS011;4185;41.506;24.938;2023-04-03T06:06:12;22.23;;;13.33;;
8293;SDS011;4185;41.506;24.938;2023-04-03T06:08:41;22.53;;;11.73;;
8293;SDS011;4185;41.506;24.938;2023-04-03T06:11:08;20.47;;;11.37;;
8293;SDS011;4185;41.506;24.938;2023-04-03T06:13:35;21.47;;;13.20;;
8293;SDS011;4185;41.506;24.938;2023-04-03T06:16:03;22.97;;;14.30;;
8293;SDS011;4185;41.506;24.938;2023-04-03T06:18:31;18.67;;;12.20;;
8293;SDS011;4185;41.506;24.938;2023-04-03T06:20:57;16.10;;;11.57;;
8293;SDS011;4185;41.506;24.938;2023-04-03T06:23:25;14.60;;;9.93;;
8293;SDS011;4185;41.506;24.938;2023-04-03T06:25:54;16.30;;;10.43;;
8293;SDS011;4185;41.506;24.938;2023-04-03T06:28:20;16.60;;;10.13;;
8293;SDS011;4185;41.506;24.938;2023-04-03T06:30:47;18.73;;;12.10;;
8293;SDS011;4185;41.506;24.938;2023-04-03T06:33:14;19.40;;;12.03;;
8293;SDS011;4185;41.506;24.938;2023-04-03T06:35:41;21.97;;;13.77;;
8293;SDS011;4185;41.506;24.938;2023-04-03T06:38:08;20.07;;;11.80;;
8293;SDS011;4185;41.506;24.938;2023-04-03T06:40:35;15.93;;;10.97;;
8293;SDS011;4185;41.506;24.938;2023-04-03T06:43:03;21.03;;;13.47;;
8293;SDS011;4185;41.506;24.938;2023-04-03T06:45:30;17.63;;;10.80;;
8293;SDS011;4185;41.506;24.938;2023-04-03T06:47:57;23.77;;;12.63;;
8293;SDS011;4185;41.506;24.938;2023-04-03T06:50:24;17.53;;;11.30;;
8293;SDS011;4185;41.506;24.938;2023-04-03T06:52:51;15.63;;;9.23;;
8293;SDS011;4185;41.506;24.938;2023-04-03T06:55:18;11.33;;;7.33;;
8293;SDS011;4185;41.506;24.938;2023-04-03T06:57:45;14.63;;;8.47;;
8293;SDS011;4185;41.506;24.938;2023-04-03T07:00:14;16.40;;;9.50;;
8293;SDS011;4185;41.506;24.938;2023-04-03T07:02:41;13.27;;;7.70;;
8293;SDS011;4185;41.506;24.938;2023-04-03T07:05:08;12.83;;;8.83;;
8293;SDS011;4185;41.506;24.938;2023-04-03T07:07:35;17.10;;;8.87;;
8293;SDS011;4185;41.506;24.938;2023-04-03T07:10:06;19.50;;;11.23;;
8293;SDS011;4185;41.506;24.938;2023-04-03T07:12:35;13.90;;;10.37;;
8293;SDS011;4185;41.506;24.938;2023-04-03T07:15:02;14.83;;;9.53;;
8293;SDS011;4185;41.506;24.938;2023-04-03T07:17:31;17.00;;;10.43;;
8293;SDS011;4185;41.506;24.938;2023-04-03T07:19:58;16.07;;;9.90;;
8293;SDS011;4185;41.506;24.938;2023-04-03T07:22:25;14.97;;;10.03;;
8293;SDS011;4185;41.506;24.938;2023-04-03T07:24:52;14.37;;;9.23;;
8293;SDS011;4185;41.506;24.938;2023-04-03T07:27:18;11.13;;;8.20;;
8293;SDS011;4185;41.506;24.938;2023-04-03T07:29:45;24.97;;;13.07;;
8293;SDS011;4185;41.506;24.938;2023-04-03T07:32:13;22.97;;;13.83;;
8293;SDS011;4185;41.506;24.938;2023-04-03T07:34:41;22.77;;;13.13;;
8293;SDS011;4185;41.506;24.938;2023-04-03T07:37:08;17.80;;;11.03;;
8293;SDS011;4185;41.506;24.938;2023-04-03T07:39:35;22.83;;;10.27;;
8293;SDS011;4185;41.506;24.938;2023-04-03T07:42:02;17.10;;;10.73;;
8293;SDS011;4185;41.506;24.938;2023-04-03T07:44:29;17.73;;;10.73;;
8293;SDS011;4185;41.506;24.938;2023-04-03T07:46:56;21.87;;;11.50;;
8293;SDS011;4185;41.506;24.938;2023-04-03T07:49:23;19.87;;;11.63;;
8293;SDS011;4185;41.506;24.938;2023-04-03T07:51:51;17.77;;;10.00;;
8293;SDS011;4185;41.506;24.938;2023-04-03T07:54:18;13.07;;;7.93;;
8293;SDS011;4185;41.506;24.938;2023-04-03T07:56:45;13.50;;;8.47;;
8293;SDS011;4185;41.506;24.938;2023-04-03T07:59:11;10.67;;;6.60;;
8293;SDS011;4185;41.506;24.938;2023-04-03T08:01:38;10.73;;;7.30;;
8293;SDS011;4185;41.506;24.938;2023-04-03T08:04:05;14.83;;;8.10;;
8293;SDS011;4185;41.506;24.938;2023-04-03T08:06:32;11.70;;;8.27;;
8293;SDS011;4185;41.506;24.938;2023-04-03T08:09:03;10.83;;;7.77;;
8293;SDS011;4185;41.506;24.938;2023-04-03T08:11:30;12.70;;;7.37;;
8293;SDS011;4185;41.506;24.938;2023-04-03T08:13:57;9.40;;;6.63;;
8293;SDS011;4185;41.506;24.938;2023-04-03T08:16:24;14.47;;;8.77;;
8293;SDS011;4185;41.506;24.938;2023-04-03T08:18:51;18.23;;;9.17;;
8293;SDS011;4185;41.506;24.938;2023-04-03T08:21:18;12.53;;;7.77;;
8293;SDS011;4185;41.506;24.938;2023-04-03T08:23:47;11.50;;;7.70;;
8293;SDS011;4185;41.506;24.938;2023-04-03T08:26:16;16.37;;;10.90;;
8293;SDS011;4185;41.506;24.938;2023-04-03T08:28:44;21.20;;;13.87;;
8293;SDS011;4185;41.506;24.938;2023-04-03T08:31:11;23.63;;;14.70;;
8293;SDS011;4185;41.506;24.938;2023-04-03T08:33:40;23.67;;;15.23;;
8293;SDS011;4185;41.506;24.938;2023-04-03T08:36:14;19.27;;;14.47;;
8293;SDS011;4185;41.506;24.938;2023-04-03T08:38:44;27.67;;;16.97;;
8293;SDS011;4185;41.506;24.938;2023-04-03T08:41:12;36.93;;;19.63;;
8293;SDS011;4185;41.506;24.938;2023-04-03T08:43:46;134.20;;;55.60;;
8293;SDS011;4185;41.506;24.938;2023-04-03T08:46:22;74.00;;;35.23;;
8293;SDS011;4185;41.506;24.938;2023-04-03T08:48:52;45.63;;;25.17;;
8293;SDS011;4185;41.506;24.938;2023-04-03T08:51:21;40.80;;;21.63;;
8293;SDS011;4185;41.506;24.938;2023-04-03T08:53:52;38.13;;;22.63;;
8293;SDS011;4185;41.506;24.938;2023-04-03T08:56:23;26.30;;;16.10;;
8293;SDS011;4185;41.506;24.938;2023-04-03T08:58:52;26.03;;;14.60;;
8293;SDS011;4185;41.506;24.938;2023-04-03T09:01:23;19.40;;;12.63;;
8293;SDS011;4185;41.506;24.938;2023-04-03T09:03:53;19.27;;;11.00;;
8293;SDS011;4185;41.506;24.938;2023-04-03T09:06:21;13.57;;;9.00;;
8293;SDS011;4185;41.506;24.938;2023-04-03T09:08:51;10.23;;;7.60;;
8293;SDS011;4185;41.506;24.938;2023-04-03T09:11:27;22.37;;;14.87;;
8293;SDS011;4185;41.506;24.938;2023-04-03T09:14:04;28.10;;;17.60;;
8293;SDS011;4185;41.506;24.938;2023-04-03T09:16:43;28.20;;;17.07;;
8293;SDS011;4185;41.506;24.938;2023-04-03T09:19:17;17.30;;;13.00;;
8293;SDS011;4185;41.506;24.938;2023-04-03T09:21:56;22.33;;;14.20;;
8293;SDS011;4185;41.506;24.938;2023-04-03T09:24:23;17.60;;;11.60;;
8293;SDS011;4185;41.506;24.938;2023-04-03T09:26:51;20.33;;;12.33;;
8293;SDS011;4185;41.506;24.938;2023-04-03T09:29:25;19.73;;;14.30;;
8293;SDS011;4185;41.506;24.938;2023-04-03T09:31:54;20.57;;;12.80;;
8293;SDS011;4185;41.506;24.938;2023-04-03T09:34:26;25.13;;;16.07;;
8293;SDS011;4185;41.506;24.938;2023-04-03T09:36:57;22.67;;;15.20;;
8293;SDS011;4185;41.506;24.938;2023-04-03T09:39:31;21.57;;;15.17;;
8293;SDS011;4185;41.506;24.938;2023-04-03T09:41:59;20.10;;;13.10;;
8293;SDS011;4185;41.506;24.938;2023-04-03T09:44:29;16.77;;;12.07;;
8293;SDS011;4185;41.506;24.938;2023-04-03T09:46:57;18.77;;;13.93;;
8293;SDS011;4185;41.506;24.938;2023-04-03T09:49:25;26.87;;;17.40;;
8293;SDS011;4185;41.506;24.938;2023-04-03T09:51:52;49.83;;;27.63;;
8293;SDS011;4185;41.506;24.938;2023-04-03T09:57:08;33.80;;;21.77;;
8293;SDS011;4185;41.506;24.938;2023-04-03T09:59:47;44.70;;;28.80;;
8293;SDS011;4185;41.506;24.938;2023-04-03T10:02:28;97.23;;;46.33;;
8293;SDS011;4185;41.506;24.938;2023-04-03T10:05:00;53.07;;;29.90;;
8293;SDS011;4185;41.506;24.938;2023-04-03T10:07:31;29.10;;;16.10;;
8293;SDS011;4185;41.506;24.938;2023-04-03T10:10:00;19.30;;;12.80;;
8293;SDS011;4185;41.506;24.938;2023-04-03T10:12:29;14.60;;;9.70;;
8293;SDS011;4185;41.506;24.938;2023-04-03T10:14:58;11.13;;;9.80;;
8293;SDS011;4185;41.506;24.938;2023-04-03T10:17:29;10.60;;;8.20;;
8293;SDS011;4185;41.506;24.938;2023-04-03T10:20:07;9.07;;;7.83;;
8293;SDS011;4185;41.506;24.938;2023-04-03T10:22:55;10.67;;;7.70;;
8293;SDS011;4185;41.506;24.938;2023-04-03T10:25:30;7.13;;;6.43;;
8293;SDS011;4185;41.506;24.938;2023-04-03T10:28:03;8.70;;;7.40;;
8293;SDS011;4185;41.506;24.938;2023-04-03T10:30:42;8.53;;;6.57;;
8293;SDS011;4185;41.506;24.938;2023-04-03T10:33:20;9.90;;;7.43;;
8293;SDS011;4185;41.506;24.938;2023-04-03T10:36:02;9.63;;;6.73;;
8293;SDS011;4185;41.506;24.938;2023-04-03T10:38:39;5.70;;;5.07;;
8293;SDS011;4185;41.506;24.938;2023-04-03T10:41:15;7.40;;;5.87;;
8293;SDS011;4185;41.506;24.938;2023-04-03T10:43:48;8.37;;;6.80;;
8293;SDS011;4185;41.506;24.938;2023-04-03T10:46:26;5.80;;;4.80;;
8293;SDS011;4185;41.506;24.938;2023-04-03T10:49:05;6.87;;;5.30;;
8293;SDS011;4185;41.506;24.938;2023-04-03T10:51:41;6.27;;;5.20;;
8293;SDS011;4185;41.506;24.938;2023-04-03T10:54:11;8.47;;;6.40;;
8293;SDS011;4185;41.506;24.938;2023-04-03T10:56:39;8.43;;;5.67;;
8293;SDS011;4185;41.506;24.938;2023-04-03T10:59:13;8.70;;;6.40;;
8293;SDS011;4185;41.506;24.938;2023-04-03T11:01:47;8.10;;;6.30;;
8293;SDS011;4185;41.506;24.938;2023-04-03T11:04:17;8.43;;;5.33;;
8293;SDS011;4185;41.506;24.938;2023-04-03T11:06:48;6.27;;;5.57;;
8293;SDS011;4185;41.506;24.938;2023-04-03T11:09:22;7.60;;;5.57;;
8293;SDS011;4185;41.506;24.938;2023-04-03T11:11:53;23.10;;;11.17;;
8293;SDS011;4185;41.506;24.938;2023-04-03T11:14:27;5.23;;;4.73;;
8293;SDS011;4185;41.506;24.938;2023-04-03T11:17:04;7.27;;;4.20;;
8293;SDS011;4185;41.506;24.938;2023-04-03T11:19:38;5.13;;;4.67;;
8293;SDS011;4185;41.506;24.938;2023-04-03T11:22:13;13.20;;;7.00;;
8293;SDS011;4185;41.506;24.938;2023-04-03T11:24:51;42.20;;;18.50;;
8293;SDS011;4185;41.506;24.938;2023-04-03T11:27:22;15.50;;;8.97;;
8293;SDS011;4185;41.506;24.938;2023-04-03T11:29:51;15.33;;;8.60;;
8293;SDS011;4185;41.506;24.938;2023-04-03T11:32:34;5.63;;;4.93;;
8293;SDS011;4185;41.506;24.938;2023-04-03T11:35:18;10.57;;;8.73;;
8293;SDS011;4185;41.506;24.938;2023-04-03T11:37:47;9.27;;;7.23;;
8293;SDS011;4185;41.506;24.938;2023-04-03T11:40:21;6.90;;;5.40;;
8293;SDS011;4185;41.506;24.938;2023-04-03T11:42:52;11.37;;;6.53;;
8293;SDS011;4185;41.506;24.938;2023-04-03T11:45:33;17.57;;;10.20;;
8293;SDS011;4185;41.506;24.938;2023-04-03T11:48:04;14.97;;;9.10;;
8293;SDS011;4185;41.506;24.938;2023-04-03T11:50:40;8.40;;;6.00;;
8293;SDS011;4185;41.506;24.938;2023-04-03T11:53:29;17.93;;;10.87;;
8293;SDS011;4185;41.506;24.938;2023-04-03T11:56:02;12.53;;;8.73;;
8293;SDS011;4185;41.506;24.938;2023-04-03T11:58:30;7.83;;;6.17;;
8293;SDS011;4185;41.506;24.938;2023-04-03T12:01:06;8.67;;;7.43;;
8293;SDS011;4185;41.506;24.938;2023-04-03T12:12:57;8.53;;;7.10;;
8293;SDS011;4185;41.506;24.938;2023-04-03T12:18:38;20.07;;;12.70;;
8293;SDS011;4185;41.506;24.938;2023-04-03T12:21:08;11.43;;;7.67;;
8293;SDS011;4185;41.506;24.938;2023-04-03T12:23:37;12.23;;;9.47;;
8293;SDS011;4185;41.506;24.938;2023-04-03T12:26:24;8.17;;;6.80;;
8293;SDS011;4185;41.506;24.938;2023-04-03T12:28:53;18.47;;;16.57;;
8293;SDS011;4185;41.506;24.938;2023-04-03T12:31:22;14.53;;;11.43;;
8293;SDS011;4185;41.506;24.938;2023-04-03T12:36:52;7.40;;;6.40;;
8293;SDS011;4185;41.506;24.938;2023-04-03T12:39:35;7.10;;;5.80;;
8293;SDS011;4185;41.506;24.938;2023-04-03T12:42:29;7.27;;;6.37;;
8293;SDS011;4185;41.506;24.938;2023-04-03T12:45:10;9.83;;;8.83;;
8293;SDS011;4185;41.506;24.938;2023-04-03T12:47:44;15.50;;;10.33;;
8293;SDS011;4185;41.506;24.938;2023-04-03T12:50:18;8.17;;;5.87;;
8293;SDS011;4185;41.506;24.938;2023-04-03T12:52:51;7.17;;;5.97;;
8293;SDS011;4185;41.506;24.938;2023-04-03T12:55:24;6.83;;;5.13;;
8293;SDS011;4185;41.506;24.938;2023-04-03T12:57:51;11.17;;;6.80;;
8293;SDS011;4185;41.506;24.938;2023-04-03T13:00:19;9.50;;;6.17;;
8293;SDS011;4185;41.506;24.938;2023-04-03T13:02:58;11.13;;;7.03;;
8293;SDS011;4185;41.506;24.938;2023-04-03T13:05:25;13.67;;;9.33;;
8293;SDS011;4185;41.506;24.938;2023-04-03T13:07:54;8.90;;;6.30;;
8293;SDS011;4185;41.506;24.938;2023-04-03T13:10:26;13.73;;;7.97;;
8293;SDS011;4185;41.506;24.938;2023-04-03T13:12:54;6.90;;;6.20;;
8293;SDS011;4185;41.506;24.938;2023-04-03T13:15:23;14.17;;;8.80;;
8293;SDS011;4185;41.506;24.938;2023-04-03T13:17:52;9.40;;;6.83;;
8293;SDS011;4185;41.506;24.938;2023-04-03T13:20:21;12.63;;;8.57;;
8293;SDS011;4185;41.506;24.938;2023-04-03T13:22:52;7.27;;;5.90;;
8293;SDS011;4185;41.506;24.938;2023-04-03T13:25:22;10.97;;;7.37;;
8293;SDS011;4185;41.506;24.938;2023-04-03T13:27:53;8.70;;;6.10;;
8293;SDS011;4185;41.506;24.938;2023-04-03T13:30:23;10.13;;;7.00;;
8293;SDS011;4185;41.506;24.938;2023-04-03T13:32:52;14.53;;;7.80;;
8293;SDS011;4185;41.506;24.938;2023-04-03T13:35:31;13.67;;;8.33;;
8293;SDS011;4185;41.506;24.938;2023-04-03T13:38:00;15.17;;;10.20;;
8293;SDS011;4185;41.506;24.938;2023-04-03T13:40:29;9.57;;;7.33;;
8293;SDS011;4185;41.506;24.938;2023-04-03T13:43:02;26.63;;;15.40;;
8293;SDS011;4185;41.506;24.938;2023-04-03T13:45:30;23.40;;;13.20;;
8293;SDS011;4185;41.506;24.938;2023-04-03T13:48:10;11.13;;;8.20;;
8293;SDS011;4185;41.506;24.938;2023-04-03T13:50:58;8.60;;;6.43;;
8293;SDS011;4185;41.506;24.938;2023-04-03T13:53:28;10.37;;;6.60;;
8293;SDS011;4185;41.506;24.938;2023-04-03T13:56:00;10.10;;;7.03;;
8293;SDS011;4185;41.506;24.938;2023-04-03T13:58:34;11.30;;;8.10;;
8293;SDS011;4185;41.506;24.938;2023-04-03T14:01:07;23.00;;;15.37;;
8293;SDS011;4185;41.506;24.938;2023-04-03T14:03:40;103.53;;;36.77;;
8293;SDS011;4185;41.506;24.938;2023-04-03T14:06:10;26.47;;;13.77;;
8293;SDS011;4185;41.506;24.938;2023-04-03T14:08:38;13.90;;;9.57;;
8293;SDS011;4185;41.506;24.938;2023-04-03T14:11:05;17.17;;;11.17;;
8293;SDS011;4185;41.506;24.938;2023-04-03T14:13:34;9.17;;;6.57;;
8293;SDS011;4185;41.506;24.938;2023-04-03T14:16:01;11.10;;;7.63;;
8293;SDS011;4185;41.506;24.938;2023-04-03T14:18:27;15.30;;;11.70;;
8293;SDS011;4185;41.506;24.938;2023-04-03T14:20:54;11.03;;;9.10;;
8293;SDS011;4185;41.506;24.938;2023-04-03T14:23:21;17.40;;;11.53;;
8293;SDS011;4185;41.506;24.938;2023-04-03T14:25:48;24.33;;;17.27;;
8293;SDS011;4185;41.506;24.938;2023-04-03T14:28:16;21.73;;;14.90;;
8293;SDS011;4185;41.506;24.938;2023-04-03T14:30:46;21.30;;;16.00;;
8293;SDS011;4185;41.506;24.938;2023-04-03T14:33:14;16.17;;;12.00;;
8293;SDS011;4185;41.506;24.938;2023-04-03T14:35:42;8.63;;;7.73;;
8293;SDS011;4185;41.506;24.938;2023-04-03T14:38:12;9.80;;;8.80;;
8293;SDS011;4185;41.506;24.938;2023-04-03T14:40:48;9.13;;;6.70;;
8293;SDS011;4185;41.506;24.938;2023-04-03T14:43:15;8.73;;;6.23;;
8293;SDS011;4185;41.506;24.938;2023-04-03T14:45:42;8.43;;;5.90;;
8293;SDS011;4185;41.506;24.938;2023-04-03T14:48:11;13.10;;;9.67;;
8293;SDS011;4185;41.506;24.938;2023-04-03T14:50:43;15.57;;;11.40;;
8293;SDS011;4185;41.506;24.938;2023-04-03T14:53:10;11.50;;;7.70;;
8293;SDS011;4185;41.506;24.938;2023-04-03T14:55:40;7.50;;;6.17;;
8293;SDS011;4185;41.506;24.938;2023-04-03T14:58:08;16.33;;;10.77;;
8293;SDS011;4185;41.506;24.938;2023-04-03T15:00:39;37.10;;;23.37;;
8293;SDS011;4185;41.506;24.938;2023-04-03T15:03:06;23.37;;;15.03;;
8293;SDS011;4185;41.506;24.938;2023-04-03T15:05:38;21.63;;;13.13;;
8293;SDS011;4185;41.506;24.938;2023-04-03T15:08:08;24.20;;;17.83;;
8293;SDS011;4185;41.506;24.938;2023-04-03T15:10:45;18.67;;;15.20;;
8293;SDS011;4185;41.506;24.938;2023-04-03T15:13:12;22.17;;;15.97;;
8293;SDS011;4185;41.506;24.938;2023-04-03T15:15:39;27.80;;;21.83;;
8293;SDS011;4185;41.506;24.938;2023-04-03T15:18:05;26.77;;;18.83;;
8293;SDS011;4185;41.506;24.938;2023-04-03T15:20:33;31.83;;;21.90;;